Time;durP1;ratioP1;P1;durP2;ratioP2;P2;SDS_P1;SDS_P2;PMS_P1;PMS_P2;Temp;Humidity;BMP_temperature;BMP_pressure;BME280_temperature;BME280_humidity;BME280_pressure;Samples;Min_cycle;Max_cycle;Signal;HPM_P1;HPM_P2
2023/12/02 00:00:27;;;;;;;19.45;9.07;;;;;;;16.22;71.41;99975.00;5048061;28;20025;-78
2023/12/02 00:02:52;;;;;;;14.43;10.10;;;;;;;16.28;71.53;99994.13;5048111;28;20032;-79
2023/12/02 00:05:18;;;;;;;13.27;8.27;;;;;;;16.26;71.75;99990.75;5048524;28;20033;-79
2023/12/02 00:07:44;;;;;;;22.73;10.75;;;;;;;16.36;71.67;99995.13;5052423;28;20025;-79
2023/12/02 00:10:11;;;;;;;26.67;11.73;;;;;;;16.31;71.74;99992.94;5052364;28;20382;-81
2023/12/02 00:12:37;;;;;;;18.88;12.15;;;;;;;16.29;71.87;100000.41;5052086;28;20029;-79
2023/12/02 00:15:03;;;;;;;24.10;12.60;;;;;;;16.30;71.89;99985.78;5052475;28;20033;-78
2023/12/02 00:17:28;;;;;;;16.98;12.43;;;;;;;16.30;71.85;99978.50;5052035;28;20021;-80
2023/12/02 00:19:54;;;;;;;29.60;13.45;;;;;;;16.34;72.25;99982.56;5052566;28;20422;-76
2023/12/02 00:22:20;;;;;;;22.20;11.15;;;;;;;16.25;71.92;99951.06;5051861;28;20031;-77
2023/12/02 00:24:45;;;;;;;20.08;11.20;;;;;;;16.37;71.94;99959.66;5051370;28;20061;-77
2023/12/02 00:27:11;;;;;;;22.63;9.65;;;;;;;16.33;71.89;99964.59;5051595;28;20087;-79
2023/12/02 00:29:36;;;;;;;25.45;11.48;;;;;;;16.33;72.01;99963.72;5051531;28;20039;-77
2023/12/02 00:32:02;;;;;;;21.35;10.23;;;;;;;16.30;72.24;99959.50;5051529;28;20029;-77
2023/12/02 00:34:27;;;;;;;12.93;8.77;;;;;;;16.30;72.34;99956.78;5051785;28;20032;-78
2023/12/02 00:36:53;;;;;;;16.13;9.93;;;;;;;16.28;72.16;99947.16;5051675;28;20017;-76
2023/12/02 00:39:19;;;;;;;15.13;9.10;;;;;;;16.29;72.51;99957.84;5052480;28;20033;-76
2023/12/02 00:41:44;;;;;;;16.20;9.88;;;;;;;16.34;72.46;99962.72;5055175;28;20144;-78
2023/12/02 00:44:10;;;;;;;17.17;8.32;;;;;;;16.29;72.52;99955.13;5052195;28;20035;-79
2023/12/02 00:46:35;;;;;;;16.45;8.82;;;;;;;16.26;72.13;99947.34;5051463;28;20401;-77
2023/12/02 00:49:01;;;;;;;23.75;9.43;;;;;;;16.32;72.60;99956.63;5049910;28;20460;-78
2023/12/02 00:51:26;;;;;;;25.05;9.20;;;;;;;16.35;72.30;99969.84;5051370;28;20025;-76
2023/12/02 00:53:52;;;;;;;17.55;8.63;;;;;;;16.30;72.37;99964.94;5051410;28;20107;-78
2023/12/02 00:56:17;;;;;;;15.57;9.23;;;;;;;16.29;72.43;99963.25;5051161;28;20108;-76
2023/12/02 00:58:43;;;;;;;17.33;8.98;;;;;;;16.32;72.67;99967.50;5051408;28;20033;-77
2023/12/02 01:01:09;;;;;;;20.35;9.20;;;;;;;16.31;72.51;99957.66;5051114;28;20025;-78
2023/12/02 01:03:34;;;;;;;18.55;8.68;;;;;;;16.26;72.53;99955.47;5050903;28;20040;-77
2023/12/02 01:06:00;;;;;;;18.10;9.27;;;;;;;16.23;72.75;99953.13;5051159;28;20396;-77
2023/12/02 01:08:25;;;;;;;18.90;8.70;;;;;;;16.09;72.98;99934.88;5050995;28;20025;-77
2023/12/02 01:10:51;;;;;;;20.02;9.43;;;;;;;16.10;73.26;99952.84;5050633;28;20466;-79
2023/12/02 01:13:16;;;;;;;19.95;9.13;;;;;;;16.03;73.47;99932.00;5050811;28;20079;-78
2023/12/02 01:15:42;;;;;;;22.45;9.05;;;;;;;16.12;73.75;99955.38;5051054;28;20029;-76
2023/12/02 01:18:07;;;;;;;22.15;9.02;;;;;;;16.07;74.02;99953.19;5050301;28;20098;-77
2023/12/02 01:20:33;;;;;;;15.63;8.85;;;;;;;16.13;73.52;99957.91;5052167;28;20025;-77
2023/12/02 01:22:59;;;;;;;15.38;7.88;;;;;;;16.15;73.44;99955.84;5051613;28;20104;-76
2023/12/02 01:25:24;;;;;;;19.63;8.05;;;;;;;16.01;73.60;99913.22;5052937;28;20144;-76
2023/12/02 01:27:50;;;;;;;16.33;9.05;;;;;;;16.12;73.88;99945.34;5051131;28;20033;-78
2023/12/02 01:30:15;;;;;;;18.38;9.25;;;;;;;15.96;73.53;99917.47;5052293;28;20017;-76
2023/12/02 01:32:41;;;;;;;21.50;9.82;;;;;;;16.15;73.77;99953.16;5056002;28;20021;-77
2023/12/02 01:35:06;;;;;;;12.88;6.97;;;;;;;16.15;73.78;99936.88;5052615;28;20020;-80
2023/12/02 01:37:32;;;;;;;17.60;7.18;;;;;;;16.19;73.76;99940.06;5050448;28;20029;-78
2023/12/02 01:39:57;;;;;;;15.75;7.40;;;;;;;16.12;73.62;99915.53;5050503;28;20025;-77
2023/12/02 01:42:23;;;;;;;13.52;6.60;;;;;;;16.08;73.26;99894.38;5050440;28;20111;-79
2023/12/02 01:44:48;;;;;;;22.20;8.27;;;;;;;16.21;73.22;99919.88;5050129;28;20500;-77
2023/12/02 01:47:15;;;;;;;13.88;7.63;;;;;;;16.29;72.95;99933.41;5050016;28;20113;-77
2023/12/02 01:49:40;;;;;;;18.88;8.18;;;;;;;16.35;73.21;99940.00;5053002;28;20021;-78
2023/12/02 01:52:06;;;;;;;21.70;8.90;;;;;;;16.34;72.87;99944.56;5051702;28;20094;-79
2023/12/02 01:54:32;;;;;;;15.00;8.23;;;;;;;16.29;73.38;99925.28;5059873;28;20090;-78
2023/12/02 01:56:58;;;;;;;17.00;7.45;;;;;;;16.31;73.19;99928.66;5056675;28;20029;-78
2023/12/02 01:59:23;;;;;;;18.40;8.30;;;;;;;16.30;73.46;99926.94;5052939;28;20059;-75
2023/12/02 02:01:49;;;;;;;17.23;7.63;;;;;;;16.27;73.62;99921.88;5052098;28;20037;-77
2023/12/02 02:04:14;;;;;;;13.75;7.85;;;;;;;16.28;73.66;99922.72;5050791;28;20033;-79
2023/12/02 02:06:40;;;;;;;13.75;7.07;;;;;;;16.24;73.48;99914.09;5050210;28;20084;-75
2023/12/02 02:09:05;;;;;;;17.10;7.82;;;;;;;16.28;73.76;99923.56;5052451;28;20021;-79
2023/12/02 02:11:31;;;;;;;16.33;8.30;;;;;;;16.24;73.87;99913.25;5050611;28;20393;-76
2023/12/02 02:13:57;;;;;;;13.68;7.18;;;;;;;16.24;73.61;99922.22;5051226;28;20060;-76
2023/12/02 02:16:22;;;;;;;12.63;7.90;;;;;;;16.20;74.00;99915.50;5051538;28;20401;-76
2023/12/02 02:18:48;;;;;;;17.60;7.90;;;;;;;16.16;73.63;99911.44;5051486;28;20631;-77
2023/12/02 02:21:16;;;;;;;19.33;8.05;;;;;;;16.26;73.85;99903.94;5051622;28;20025;-77
2023/12/02 02:23:42;;;;;;;18.02;9.25;;;;;;;16.24;73.78;99914.09;5056077;28;20036;-76
2023/12/02 02:26:08;;;;;;;17.33;8.98;;;;;;;16.11;74.11;99873.16;5054605;28;20057;-78
2023/12/02 02:28:33;;;;;;;24.30;10.50;;;;;;;16.22;74.10;99897.16;5051139;28;20029;-77
2023/12/02 02:30:59;;;;;;;16.75;7.63;;;;;;;16.24;74.16;99884.25;5050698;28;20513;-77
2023/12/02 02:33:26;;;;;;;16.77;8.30;;;;;;;16.25;73.98;99883.22;5051015;28;20075;-76
2023/12/02 02:35:52;;;;;;;17.70;9.35;;;;;;;16.29;73.92;99884.56;5051278;28;20029;-77
2023/12/02 02:38:17;;;;;;;13.88;7.75;;;;;;;16.29;74.00;99894.56;5050509;28;20032;-76
2023/12/02 02:40:44;;;;;;;16.33;8.55;;;;;;;16.27;74.15;99878.47;5049566;28;20056;-76
2023/12/02 02:43:09;;;;;;;20.92;6.80;;;;;;;16.29;74.30;99895.44;5051248;28;20040;-77
2023/12/02 02:45:35;;;;;;;16.40;6.50;;;;;;;16.27;74.25;99892.03;5051281;28;20037;-76
2023/12/02 02:48:00;;;;;;;17.13;6.95;;;;;;;16.10;74.84;99876.88;5050635;28;20466;-77
2023/12/02 02:50:26;;;;;;;17.13;8.82;;;;;;;16.27;74.81;99902.88;5050639;28;20057;-76
2023/12/02 02:52:51;;;;;;;10.50;6.30;;;;;;;16.27;74.82;99894.75;5050482;28;20021;-77
2023/12/02 02:55:17;;;;;;;22.27;6.78;;;;;;;16.30;74.59;99904.38;5049692;28;20508;-76
2023/12/02 02:57:42;;;;;;;10.32;7.53;;;;;;;16.33;74.97;99907.59;5049787;28;20075;-77
2023/12/02 03:00:09;;;;;;;15.85;7.93;;;;;;;16.32;74.89;99908.63;5048860;28;20016;-76
2023/12/02 03:02:36;;;;;;;18.58;8.35;;;;;;;16.29;75.18;99900.84;5049126;28;20029;-77
2023/12/02 03:05:01;;;;;;;15.32;8.02;;;;;;;16.29;75.28;99908.16;5049017;28;20021;-77
2023/12/02 03:07:27;;;;;;;25.02;8.18;;;;;;;16.33;75.36;99904.88;5048989;28;20027;-75
2023/12/02 03:09:52;;;;;;;17.65;8.40;;;;;;;16.28;75.36;99896.44;5048907;28;20405;-77
2023/12/02 03:12:18;;;;;;;28.00;9.93;;;;;;;16.24;75.53;99889.66;5048634;28;20095;-77
2023/12/02 03:14:43;;;;;;;22.00;9.95;;;;;;;16.27;75.68;99900.16;5054029;28;20350;-77
2023/12/02 03:17:09;;;;;;;22.55;9.32;;;;;;;16.24;75.73;99895.09;5057263;28;20025;-78
2023/12/02 03:19:34;;;;;;;19.35;8.25;;;;;;;16.26;75.96;99893.06;5050830;28;20033;-76
2023/12/02 03:22:02;;;;;;;21.90;8.73;;;;;;;16.19;76.03;99881.22;5047210;28;20029;-76
2023/12/02 03:24:28;;;;;;;18.23;8.35;;;;;;;16.23;76.18;99898.84;5047170;28;20425;-77
2023/12/02 03:26:53;;;;;;;19.90;8.93;;;;;;;16.28;76.20;99885.59;5048324;28;20079;-77
2023/12/02 03:29:18;;;;;;;25.13;8.77;;;;;;;16.29;76.16;99903.56;5048676;28;20107;-76
2023/12/02 03:31:44;;;;;;;16.00;8.98;;;;;;;16.28;76.36;99901.88;5048588;28;20455;-77
2023/12/02 03:34:09;;;;;;;27.70;9.95;;;;;;;16.28;76.62;99904.59;5048523;28;20025;-77
2023/12/02 03:36:35;;;;;;;16.20;8.05;;;;;;;16.32;76.37;99897.78;5048205;28;20021;-76
2023/12/02 03:39:01;;;;;;;37.55;9.35;;;;;;;16.31;76.59;99897.94;5048403;28;20021;-76
2023/12/02 03:41:26;;;;;;;17.45;7.22;;;;;;;16.40;76.66;99898.72;5047733;28;20111;-76
2023/12/02 03:43:52;;;;;;;19.70;6.43;;;;;;;16.18;76.37;99852.41;5047936;28;20029;-76
2023/12/02 03:46:17;;;;;;;16.70;6.93;;;;;;;16.45;76.39;99890.91;5048516;28;20072;-76
2023/12/02 03:48:43;;;;;;;28.13;6.95;;;;;;;16.47;76.23;99891.56;5048083;28;20025;-78
2023/12/02 03:51:08;;;;;;;15.00;6.72;;;;;;;16.44;76.44;99894.66;5048190;28;20108;-78
2023/12/02 03:53:34;;;;;;;15.10;6.35;;;;;;;16.30;76.53;99861.81;5047962;28;20858;-77
2023/12/02 03:56:00;;;;;;;16.05;6.53;;;;;;;16.47;76.62;99888.84;5048192;28;20044;-76
2023/12/02 03:58:27;;;;;;;16.95;6.43;;;;;;;16.37;76.10;99872.81;5048170;28;20030;-77
2023/12/02 04:00:53;;;;;;;10.45;6.15;;;;;;;16.45;76.43;99874.63;5048882;28;20097;-76
2023/12/02 04:03:19;;;;;;;18.00;6.95;;;;;;;16.36;75.98;99859.44;5048157;28;20497;-77
2023/12/02 04:05:45;;;;;;;12.35;5.65;;;;;;;16.39;75.97;99870.75;5049751;28;20084;-76
2023/12/02 04:08:10;;;;;;;14.20;7.13;;;;;;;16.52;76.25;99886.44;5050883;28;20393;-77
2023/12/02 04:10:36;;;;;;;15.63;6.53;;;;;;;16.46;76.14;99870.88;5048796;28;20037;-78
2023/12/02 04:13:02;;;;;;;14.15;6.72;;;;;;;16.58;75.98;99891.16;5048015;28;20032;-77
2023/12/02 04:15:27;;;;;;;22.90;6.82;;;;;;;16.61;75.93;99899.81;5047867;28;20040;-76
2023/12/02 04:17:53;;;;;;;19.80;6.00;;;;;;;16.57;75.88;99890.34;5048139;28;20031;-76
2023/12/02 04:20:19;;;;;;;12.95;5.88;;;;;;;16.62;75.99;99903.38;5047844;28;20025;-77
2023/12/02 04:22:45;;;;;;;21.95;7.28;;;;;;;16.66;75.80;99907.41;5047863;28;20075;-77
2023/12/02 04:25:10;;;;;;;14.70;5.78;;;;;;;16.66;75.50;99910.97;5047594;28;20053;-77
2023/12/02 04:27:36;;;;;;;20.75;6.03;;;;;;;16.68;75.43;99902.63;5047734;28;20021;-77
2023/12/02 04:30:01;;;;;;;12.63;6.32;;;;;;;16.63;75.67;99910.50;5047888;28;20032;-77
2023/12/02 04:32:27;;;;;;;19.13;7.22;;;;;;;16.69;75.34;99917.91;5047656;28;20032;-76
2023/12/02 04:34:53;;;;;;;16.40;6.72;;;;;;;16.63;75.54;99899.63;5047986;28;20037;-76
2023/12/02 04:37:23;;;;;;;12.85;6.70;;;;;;;16.68;75.62;99919.78;5047752;28;20036;-76
2023/12/02 04:39:48;;;;;;;22.33;6.85;;;;;;;16.71;75.24;99918.56;5047668;28;20323;-76
2023/12/02 04:42:14;;;;;;;17.35;7.15;;;;;;;16.70;75.11;99914.16;5047496;28;20035;-76
2023/12/02 04:44:39;;;;;;;11.88;5.90;;;;;;;16.69;75.46;99917.91;5047607;28;20481;-77
2023/12/02 04:47:05;;;;;;;16.70;7.35;;;;;;;16.67;75.59;99917.22;5047623;28;20029;-77
2023/12/02 04:49:31;;;;;;;18.38;6.93;;;;;;;16.54;75.60;99890.72;5047348;28;20025;-77
2023/12/02 04:51:56;;;;;;;20.98;6.10;;;;;;;16.62;75.46;99919.66;5048692;28;20025;-77
2023/12/02 04:54:21;;;;;;;22.50;6.93;;;;;;;16.50;75.25;99888.50;5051451;28;20032;-76
2023/12/02 04:56:47;;;;;;;22.88;6.82;;;;;;;16.56;75.41;99899.50;5054435;28;20469;-77
2023/12/02 04:59:12;;;;;;;20.17;7.07;;;;;;;16.54;75.21;99897.97;5059335;28;20029;-77
2023/12/02 05:01:38;;;;;;;23.20;6.45;;;;;;;16.71;74.88;99915.84;5054665;28;20396;-76
2023/12/02 05:04:05;;;;;;;20.38;6.20;;;;;;;16.69;74.82;99904.34;5051331;28;20032;-76
2023/12/02 05:06:31;;;;;;;14.45;7.85;;;;;;;16.62;75.04;99893.34;5050829;28;20024;-77
2023/12/02 05:08:57;;;;;;;12.77;5.47;;;;;;;16.62;74.69;99892.50;5051062;28;20032;-77
2023/12/02 05:11:23;;;;;;;12.23;5.38;;;;;;;16.71;74.55;99908.56;5050701;28;20515;-76
2023/12/02 05:13:50;;;;;;;20.25;6.85;;;;;;;16.68;74.81;99910.78;5051079;28;20036;-76
2023/12/02 05:16:16;;;;;;;15.38;6.03;;;;;;;16.53;74.60;99885.41;5051135;28;20033;-77
2023/12/02 05:18:42;;;;;;;19.23;6.18;;;;;;;16.55;74.63;99884.25;5050910;28;20083;-77
2023/12/02 05:21:11;;;;;;;17.75;5.90;;;;;;;16.50;75.03;99881.19;5050459;28;20520;-77
2023/12/02 05:23:36;;;;;;;29.73;6.53;;;;;;;16.63;74.83;99888.78;5050578;28;20385;-77
2023/12/02 05:26:02;;;;;;;14.38;6.72;;;;;;;16.59;74.68;99882.00;5050965;28;20068;-77
2023/12/02 05:28:28;;;;;;;16.95;7.20;;;;;;;16.64;74.53;99891.28;5050498;28;20032;-76
2023/12/02 05:30:54;;;;;;;20.08;6.40;;;;;;;16.67;74.55;99887.38;5049714;28;20029;-77
2023/12/02 05:33:22;;;;;;;21.55;6.80;;;;;;;16.66;74.93;99882.97;5050472;28;20025;-76
2023/12/02 05:35:48;;;;;;;15.65;6.07;;;;;;;16.62;74.64;99876.22;5050579;28;20024;-77
2023/12/02 05:38:14;;;;;;;21.58;7.68;;;;;;;16.69;74.80;99886.19;5049070;28;20024;-76
2023/12/02 05:40:39;;;;;;;18.52;6.90;;;;;;;16.73;74.61;99883.91;5050434;28;20021;-76
2023/12/02 05:43:05;;;;;;;22.80;7.32;;;;;;;16.71;74.37;99875.13;5050857;28;20572;-78
2023/12/02 05:45:30;;;;;;;13.75;5.93;;;;;;;16.73;74.63;99873.06;5050462;28;20055;-77
2023/12/02 05:47:56;;;;;;;20.50;6.30;;;;;;;16.72;74.67;99860.53;5051413;28;20065;-77
2023/12/02 05:50:21;;;;;;;23.92;7.90;;;;;;;16.72;74.51;99860.53;5054649;28;20473;-77
2023/12/02 05:52:47;;;;;;;17.45;6.80;;;;;;;16.33;74.52;99809.91;5053221;28;20021;-76
2023/12/02 05:55:12;;;;;;;18.50;6.63;;;;;;;16.78;74.53;99878.81;5050158;28;20544;-77
2023/12/02 05:57:38;;;;;;;16.75;6.35;;;;;;;16.80;74.55;99883.03;5050458;28;20028;-77
2023/12/02 06:00:05;;;;;;;19.75;6.93;;;;;;;16.69;74.36;99856.31;5049983;28;20516;-76
2023/12/02 06:02:30;;;;;;;14.70;6.45;;;;;;;16.88;74.21;99882.09;5049738;28;20067;-77
2023/12/02 06:04:56;;;;;;;17.08;7.03;;;;;;;16.87;74.12;99869.56;5049627;28;20131;-77
2023/12/02 06:07:22;;;;;;;16.25;6.03;;;;;;;16.86;74.42;99862.44;5049633;28;20508;-76
2023/12/02 06:09:47;;;;;;;10.07;5.57;;;;;;;16.88;74.34;99866.66;5049630;28;20079;-76
2023/12/02 06:12:13;;;;;;;20.27;9.05;;;;;;;16.98;74.26;99888.13;5049937;28;20108;-78
2023/12/02 06:14:39;;;;;;;11.35;5.57;;;;;;;17.04;74.59;99889.25;5048369;28;20183;-77
2023/12/02 06:17:05;;;;;;;18.40;6.47;;;;;;;16.98;74.21;99870.97;5049848;28;20036;-77
2023/12/02 06:19:31;;;;;;;14.32;6.07;;;;;;;16.94;74.12;99859.63;5049719;28;20025;-77
2023/12/02 06:21:57;;;;;;;16.02;6.28;;;;;;;17.22;73.51;99889.75;5049699;28;20025;-77
2023/12/02 06:24:22;;;;;;;14.85;6.18;;;;;;;17.30;73.12;99893.25;5049258;28;20152;-77
2023/12/02 06:26:48;;;;;;;12.50;6.50;;;;;;;17.24;72.82;99876.84;5049532;28;20108;-78
2023/12/02 06:29:13;;;;;;;18.85;6.85;;;;;;;17.25;73.03;99873.91;5049422;28;20025;-77
2023/12/02 06:31:39;;;;;;;20.75;7.30;;;;;;;17.36;72.71;99892.50;5049795;28;20025;-77
2023/12/02 06:34:04;;;;;;;19.40;6.95;;;;;;;17.41;72.91;99890.06;5049619;28;20032;-76
2023/12/02 06:36:30;;;;;;;26.52;7.90;;;;;;;17.32;73.04;99866.72;5049390;28;20501;-77
2023/12/02 06:38:56;;;;;;;21.63;5.93;;;;;;;17.50;73.05;99882.66;5049829;28;20040;-78
2023/12/02 06:41:22;;;;;;;24.85;7.45;;;;;;;17.54;72.66;99894.00;5053811;28;20017;-77
2023/12/02 06:43:48;;;;;;;22.20;6.05;;;;;;;17.62;72.78;99891.22;5053711;28;20449;-75
2023/12/02 06:46:23;;;;;;;18.88;6.20;;;;;;;17.67;72.04;99891.50;5049232;28;20021;-75
2023/12/02 06:48:49;;;;;;;14.18;6.32;;;;;;;17.73;71.71;99893.47;5049202;28;20040;-77
2023/12/02 06:51:15;;;;;;;15.68;5.93;;;;;;;17.72;71.46;99870.03;5048845;28;20033;-77
2023/12/02 06:53:41;;;;;;;32.97;6.78;;;;;;;17.83;71.00;99878.53;5048775;28;20032;-77
2023/12/02 06:56:17;;;;;;;16.45;6.35;;;;;;;17.70;70.92;99856.63;5049336;28;20037;-77
2023/12/02 06:58:43;;;;;;;27.50;8.38;;;;;;;17.83;70.76;99867.66;5049125;28;20116;-76
2023/12/02 07:01:08;;;;;;;21.98;8.35;;;;;;;17.86;70.70;99877.31;5048933;28;20108;-77
2023/12/02 07:03:34;;;;;;;25.17;8.30;;;;;;;17.91;70.71;99897.50;5048754;28;20036;-77
2023/12/02 07:05:59;;;;;;;21.15;9.73;;;;;;;17.92;70.68;99892.88;5048560;28;20436;-76
2023/12/02 07:08:25;;;;;;;25.05;8.55;;;;;;;17.69;70.65;99848.66;5049098;28;20459;-76
2023/12/02 07:10:51;;;;;;;24.85;9.85;;;;;;;17.98;70.54;99892.13;5048479;28;20021;-76
2023/12/02 07:13:16;;;;;;;28.48;10.18;;;;;;;17.83;70.46;99867.66;5048480;28;20365;-77
2023/12/02 07:15:42;;;;;;;22.52;8.20;;;;;;;17.93;70.44;99876.38;5045292;28;20080;-76
2023/12/02 07:18:08;;;;;;;23.20;9.00;;;;;;;18.05;70.28;99889.47;5048537;28;20405;-78
2023/12/02 07:20:33;;;;;;;25.92;8.68;;;;;;;18.03;70.28;99873.38;5048217;28;20413;-77
2023/12/02 07:23:00;;;;;;;19.98;8.43;;;;;;;18.04;70.17;99872.31;5048575;28;20032;-77
2023/12/02 07:25:25;;;;;;;33.10;8.32;;;;;;;18.14;70.12;99881.00;5048338;28;20048;-76
2023/12/02 07:27:51;;;;;;;26.63;7.70;;;;;;;18.20;69.71;99880.25;5048488;28;20021;-77
2023/12/02 07:30:16;;;;;;;26.23;8.00;;;;;;;18.24;69.42;99895.16;5048664;28;20033;-77
2023/12/02 07:32:44;;;;;;;28.55;7.05;;;;;;;18.26;69.32;99901.25;5049393;28;20064;-78
2023/12/02 07:35:10;;;;;;;13.93;6.70;;;;;;;18.21;69.58;99887.38;5050777;28;20036;-77
2023/12/02 07:37:36;;;;;;;28.15;8.50;;;;;;;18.27;69.57;99892.06;5047955;28;20037;-76
2023/12/02 07:40:01;;;;;;;34.47;8.65;;;;;;;18.28;69.46;99898.34;5048498;28;20126;-76
2023/12/02 07:42:27;;;;;;;24.00;8.73;;;;;;;18.27;69.53;99902.97;5048081;28;20040;-77
2023/12/02 07:44:52;;;;;;;34.33;8.23;;;;;;;18.06;69.82;99872.97;5048173;28;20025;-77
2023/12/02 07:47:18;;;;;;;32.25;9.70;;;;;;;18.22;69.85;99899.97;5048193;28;20029;-77
2023/12/02 07:49:43;;;;;;;25.05;9.13;;;;;;;18.14;69.58;99886.47;5048309;28;20036;-79
2023/12/02 07:52:09;;;;;;;33.63;9.88;;;;;;;18.12;70.03;99883.09;5048476;28;20029;-77
2023/12/02 07:54:34;;;;;;;22.50;9.50;;;;;;;18.11;70.31;99867.78;5048415;28;20046;-77
2023/12/02 07:57:03;;;;;;;29.17;10.15;;;;;;;18.30;70.31;99891.69;5048463;28;20109;-79
2023/12/02 07:59:29;;;;;;;25.50;9.57;;;;;;;18.32;70.24;99884.16;5048316;28;20508;-78
2023/12/02 08:01:54;;;;;;;24.73;9.07;;;;;;;18.24;70.30;99872.53;5049217;28;20033;-78
2023/12/02 08:04:20;;;;;;;37.60;9.82;;;;;;;18.44;70.02;99893.50;5048399;28;20029;-77
2023/12/02 08:06:45;;;;;;;28.65;9.05;;;;;;;18.34;69.96;99875.81;5048320;28;20056;-76
2023/12/02 08:09:14;;;;;;;25.52;8.30;;;;;;;18.57;69.74;99892.84;5047773;28;20025;-77
2023/12/02 08:11:40;;;;;;;30.63;8.75;;;;;;;18.65;69.64;99889.16;5047919;28;20083;-78
2023/12/02 08:14:06;;;;;;;18.10;7.35;;;;;;;18.64;69.48;99882.00;5045397;28;20052;-76
2023/12/02 08:16:31;;;;;;;24.75;7.60;;;;;;;18.86;69.20;99883.69;5047976;28;20024;-76
2023/12/02 08:18:57;;;;;;;26.58;7.63;;;;;;;18.98;69.22;99879.41;5048239;28;20086;-78
2023/12/02 08:21:22;;;;;;;14.35;7.18;;;;;;;19.01;68.72;99865.38;5047882;28;20056;-77
2023/12/02 08:23:49;;;;;;;28.77;7.07;;;;;;;19.25;68.27;99897.63;5050828;28;20374;-77
2023/12/02 08:26:15;;;;;;;30.50;8.50;;;;;;;19.29;67.98;99889.91;5051651;28;20139;-77
2023/12/02 08:28:40;;;;;;;28.15;7.30;;;;;;;19.51;67.26;99886.94;5052055;28;20129;-77
2023/12/02 08:31:06;;;;;;;25.63;6.10;;;;;;;19.58;66.22;99875.22;5051406;28;20546;-78
2023/12/02 08:33:31;;;;;;;16.60;5.88;;;;;;;19.64;66.09;99885.31;5051149;28;20453;-76
2023/12/02 08:35:57;;;;;;;21.98;6.60;;;;;;;19.81;66.20;99892.16;5051624;28;20095;-77
2023/12/02 08:38:22;;;;;;;24.63;6.22;;;;;;;19.89;65.13;99892.81;5051906;28;20037;-77
2023/12/02 08:40:49;;;;;;;27.95;6.93;;;;;;;19.97;64.85;99880.88;5051516;28;20056;-77
2023/12/02 08:43:15;;;;;;;19.10;7.22;;;;;;;20.04;64.40;99868.09;5051355;28;20040;-77
2023/12/02 08:45:41;;;;;;;24.10;6.50;;;;;;;20.14;64.09;99856.81;5051060;28;20112;-78
2023/12/02 08:48:06;;;;;;;19.02;6.55;;;;;;;20.14;63.63;99860.38;5051421;28;20100;-76
2023/12/02 08:50:32;;;;;;;22.55;5.72;;;;;;;20.22;63.56;99860.19;5051222;28;20037;-77
2023/12/02 08:52:57;;;;;;;26.40;6.65;;;;;;;20.33;63.49;99853.31;5051219;28;20067;-77
2023/12/02 08:55:23;;;;;;;21.05;6.03;;;;;;;20.37;63.12;99852.69;5051191;28;20039;-76
2023/12/02 08:57:48;;;;;;;21.73;5.15;;;;;;;20.47;62.96;99853.13;5051300;28;20032;-77
2023/12/02 09:00:14;;;;;;;20.20;4.93;;;;;;;20.52;62.47;99847.88;5050875;28;20024;-78
2023/12/02 09:02:39;;;;;;;18.15;5.03;;;;;;;20.55;62.06;99847.47;5050959;28;20067;-77
2023/12/02 09:05:05;;;;;;;19.95;5.68;;;;;;;20.54;61.75;99840.34;5051322;28;21260;-77
2023/12/02 09:07:31;;;;;;;19.83;5.28;;;;;;;20.54;61.91;99828.56;5051121;28;20072;-77
2023/12/02 09:09:58;;;;;;;27.38;5.18;;;;;;;20.64;61.99;99840.75;5051127;28;20078;-77
2023/12/02 09:12:24;;;;;;;18.75;5.78;;;;;;;20.68;61.60;99826.66;5050877;28;20033;-77
2023/12/02 09:15:28;;;;;;;19.88;5.90;;;;;;;20.75;61.51;99828.38;5051026;28;20029;-77
2023/12/02 09:18:08;;;;;;;10.68;4.97;;;;;;;20.84;61.20;99820.78;5054945;28;20051;-77
2023/12/02 09:20:40;;;;;;;28.67;5.65;;;;;;;20.95;60.80;99831.94;5050628;28;20029;-76
2023/12/02 09:23:09;;;;;;;21.15;5.82;;;;;;;20.98;60.47;99814.25;5050534;28;20496;-76
2023/12/02 09:25:38;;;;;;;24.60;5.40;;;;;;;21.02;59.77;99804.59;5050204;28;20049;-77
2023/12/02 09:28:05;;;;;;;17.38;4.72;;;;;;;21.19;59.95;99810.50;5050667;28;20037;-80
2023/12/02 09:30:35;;;;;;;16.90;5.45;;;;;;;21.15;59.16;99810.09;5052238;28;20386;-78
2023/12/02 09:33:01;;;;;;;31.50;14.68;;;;;;;21.21;59.06;99798.28;5050019;28;20032;-77
2023/12/02 09:35:26;;;;;;;31.20;6.88;;;;;;;21.41;58.65;99809.16;5059413;28;20035;-77
2023/12/02 09:37:56;;;;;;;16.77;5.57;;;;;;;21.49;58.43;99809.78;5069943;28;20028;-77
2023/12/02 09:40:21;;;;;;;21.52;5.63;;;;;;;21.46;58.25;99807.50;5069633;28;20036;-78
2023/12/02 09:42:55;;;;;;;22.75;5.15;;;;;;;21.33;58.34;99788.38;5055196;28;20029;-76
2023/12/02 09:45:24;;;;;;;20.45;5.18;;;;;;;21.50;57.82;99781.34;5050149;28;20064;-80
2023/12/02 09:48:13;;;;;;;14.77;5.05;;;;;;;21.55;57.91;99800.72;5049802;28;20058;-75
2023/12/02 09:51:07;;;;;;;17.50;5.10;;;;;;;21.53;57.42;99786.41;5029955;28;20040;-78
2023/12/02 09:53:55;;;;;;;22.70;5.45;;;;;;;21.65;57.50;99787.41;5007497;28;20045;-78
2023/12/02 09:56:29;;;;;;;31.30;5.47;;;;;;;21.67;57.59;99777.09;5008406;28;20068;-77
2023/12/02 09:59:13;;;;;;;21.63;4.97;;;;;;;21.71;56.90;99770.13;5007444;28;20045;-76
2023/12/02 10:01:43;;;;;;;14.02;4.50;;;;;;;21.76;56.81;99757.69;5008405;28;21178;-77
2023/12/02 10:04:28;;;;;;;13.25;4.88;;;;;;;21.90;56.57;99771.13;5007335;28;20443;-76
2023/12/02 10:07:15;;;;;;;17.65;4.63;;;;;;;21.90;56.00;99770.25;5016376;28;20133;-78
2023/12/02 10:09:58;;;;;;;12.98;4.13;;;;;;;21.93;55.92;99764.34;5013322;28;20022;-76
2023/12/02 10:12:51;;;;;;;15.15;3.70;;;;;;;21.92;55.82;99757.22;5007341;28;20044;-79
2023/12/02 10:15:19;;;;;;;13.57;4.55;;;;;;;21.87;55.85;99770.66;5007903;28;20030;-78
2023/12/02 10:17:57;;;;;;;14.82;4.28;;;;;;;21.84;56.00;99763.75;5008076;28;20049;-76
2023/12/02 10:20:28;;;;;;;28.23;4.10;;;;;;;21.79;56.19;99757.25;5009826;28;20026;-75
2023/12/02 10:23:27;;;;;;;17.10;4.50;;;;;;;21.71;56.21;99742.75;5007329;28;20081;-76
2023/12/02 10:26:24;;;;;;;20.58;4.60;;;;;;;21.76;56.36;99758.53;5013305;28;20065;-76
2023/12/02 10:28:56;;;;;;;21.25;4.97;;;;;;;21.82;56.37;99767.75;4911337;29;20509;-76
2023/12/02 10:31:27;;;;;;;;;;;;;;;21.87;56.11;99754.25;4943619;29;20087;-75
2023/12/02 10:34:21;;;;;;;15.73;4.85;;;;;;;21.89;56.10;99758.50;4949378;29;19921;-77
2023/12/02 10:36:48;;;;;;;19.27;4.50;;;;;;;21.77;56.06;99729.25;4969283;28;20078;-76
2023/12/02 10:39:35;;;;;;;14.63;4.90;;;;;;;21.96;55.67;99764.75;4968131;28;20050;-78
2023/12/02 10:42:04;;;;;;;13.20;4.45;;;;;;;21.95;55.76;99762.25;4967753;28;20368;-78
2023/12/02 10:44:33;;;;;;;26.00;5.43;;;;;;;21.95;55.81;99767.72;4968545;28;20031;-78
2023/12/02 10:47:00;;;;;;;30.17;5.03;;;;;;;21.98;55.75;99759.06;4968549;28;20049;-77
2023/12/02 10:49:30;;;;;;;19.13;4.10;;;;;;;22.00;55.83;99754.22;4970501;28;20027;-77
2023/12/02 10:51:59;;;;;;;19.35;4.60;;;;;;;21.87;55.65;99737.81;4971297;28;20039;-79
2023/12/02 10:54:29;;;;;;;25.10;4.75;;;;;;;21.98;55.93;99748.13;4974511;28;20039;-78
2023/12/02 10:57:08;;;;;;;32.28;6.25;;;;;;;22.03;56.02;99748.28;4976326;28;20045;-79
2023/12/02 10:59:53;;;;;;;17.38;4.80;;;;;;;22.06;55.86;99747.84;4975640;28;20479;-78
2023/12/02 11:02:24;;;;;;;24.23;5.75;;;;;;;21.93;55.80;99715.91;4967986;28;20038;-78
2023/12/02 11:05:02;;;;;;;20.08;6.22;;;;;;;22.02;55.84;99735.66;4993555;28;20460;-76
2023/12/02 11:07:32;;;;;;;39.10;12.38;;;;;;;21.99;55.95;99736.09;5026347;28;20061;-78
2023/12/02 11:10:09;;;;;;;27.35;6.03;;;;;;;21.99;56.05;99741.56;5009476;28;20033;-78
2023/12/02 11:12:52;;;;;;;29.17;6.43;;;;;;;21.94;55.81;99733.19;5026254;28;20045;-76
2023/12/02 11:15:26;;;;;;;14.20;5.22;;;;;;;21.90;55.88;99732.78;5010318;28;20138;-78
2023/12/02 11:18:04;;;;;;;22.55;6.25;;;;;;;21.85;55.75;99729.84;5028817;28;20486;-77
2023/12/02 11:20:42;;;;;;;20.92;5.47;;;;;;;21.84;55.95;99743.72;5028821;28;20482;-79
2023/12/02 11:23:16;;;;;;;20.80;6.38;;;;;;;21.81;56.32;99739.53;5028295;28;20478;-78
2023/12/02 11:25:56;;;;;;;21.63;6.28;;;;;;;21.82;56.49;99735.75;5028416;28;20077;-78